sensor_id;sensor_type;location;lat;lon;timestamp;P1;durP1;ratioP1;P2;durP2;ratioP2
61096;SDS011;46977;50.936;6.908;2024-03-08T00:02:27;25.52;;;13.13;;
61096;SDS011;46977;50.936;6.908;2024-03-08T00:05:31;21.75;;;11.23;;
61096;SDS011;46977;50.936;6.908;2024-03-08T00:08:33;25.13;;;13.45;;
61096;SDS011;46977;50.936;6.908;2024-03-08T00:11:37;29.02;;;15.07;;
61096;SDS011;46977;50.936;6.908;2024-03-08T00:14:40;28.38;;;15.50;;
61096;SDS011;46977;50.936;6.908;2024-03-08T00:17:43;29.00;;;15.50;;
61096;SDS011;46977;50.936;6.908;2024-03-08T00:20:46;27.70;;;13.90;;
61096;SDS011;46977;50.936;6.908;2024-03-08T00:23:49;27.60;;;14.32;;
61096;SDS011;46977;50.936;6.908;2024-03-08T00:26:53;28.30;;;14.10;;
61096;SDS011;46977;50.936;6.908;2024-03-08T00:29:56;28.42;;;14.77;;
61096;SDS011;46977;50.936;6.908;2024-03-08T00:32:58;26.15;;;13.15;;
61096;SDS011;46977;50.936;6.908;2024-03-08T00:36:02;30.67;;;16.42;;
61096;SDS011;46977;50.936;6.908;2024-03-08T00:39:04;25.52;;;12.65;;
61096;SDS011;46977;50.936;6.908;2024-03-08T00:42:10;28.02;;;14.60;;
61096;SDS011;46977;50.936;6.908;2024-03-08T00:45:12;28.77;;;13.27;;
61096;SDS011;46977;50.936;6.908;2024-03-08T00:48:14;28.30;;;15.50;;
61096;SDS011;46977;50.936;6.908;2024-03-08T00:51:17;28.40;;;15.32;;
61096;SDS011;46977;50.936;6.908;2024-03-08T00:54:20;33.30;;;15.73;;
61096;SDS011;46977;50.936;6.908;2024-03-08T00:57:23;33.95;;;15.68;;
61096;SDS011;46977;50.936;6.908;2024-03-08T01:00:26;33.03;;;13.75;;
61096;SDS011;46977;50.936;6.908;2024-03-08T01:03:28;30.05;;;14.27;;
61096;SDS011;46977;50.936;6.908;2024-03-08T01:06:33;33.38;;;15.82;;
61096;SDS011;46977;50.936;6.908;2024-03-08T01:09:36;28.83;;;15.02;;
61096;SDS011;46977;50.936;6.908;2024-03-08T01:12:39;31.30;;;15.23;;
61096;SDS011;46977;50.936;6.908;2024-03-08T01:15:42;29.30;;;15.60;;
61096;SDS011;46977;50.936;6.908;2024-03-08T01:18:44;29.52;;;15.07;;
61096;SDS011;46977;50.936;6.908;2024-03-08T01:21:48;30.65;;;14.82;;
61096;SDS011;46977;50.936;6.908;2024-03-08T01:24:50;31.55;;;14.88;;
61096;SDS011;46977;50.936;6.908;2024-03-08T01:27:54;30.75;;;15.13;;
61096;SDS011;46977;50.936;6.908;2024-03-08T01:30:56;33.67;;;15.65;;
61096;SDS011;46977;50.936;6.908;2024-03-08T01:33:59;30.75;;;15.35;;
61096;SDS011;46977;50.936;6.908;2024-03-08T01:37:01;30.40;;;15.27;;
61096;SDS011;46977;50.936;6.908;2024-03-08T01:40:04;33.08;;;15.93;;
61096;SDS011;46977;50.936;6.908;2024-03-08T01:43:20;30.42;;;15.85;;
61096;SDS011;46977;50.936;6.908;2024-03-08T01:46:23;28.48;;;14.25;;
61096;SDS011;46977;50.936;6.908;2024-03-08T01:49:26;30.27;;;14.00;;
61096;SDS011;46977;50.936;6.908;2024-03-08T01:52:30;33.78;;;15.32;;
61096;SDS011;46977;50.936;6.908;2024-03-08T01:55:33;30.65;;;14.07;;
61096;SDS011;46977;50.936;6.908;2024-03-08T01:58:39;28.42;;;14.35;;
61096;SDS011;46977;50.936;6.908;2024-03-08T02:01:43;32.50;;;16.05;;
61096;SDS011;46977;50.936;6.908;2024-03-08T02:04:46;27.10;;;11.98;;
61096;SDS011;46977;50.936;6.908;2024-03-08T02:07:48;32.15;;;15.32;;
61096;SDS011;46977;50.936;6.908;2024-03-08T02:10:50;33.47;;;15.88;;
61096;SDS011;46977;50.936;6.908;2024-03-08T02:13:54;30.42;;;14.75;;
61096;SDS011;46977;50.936;6.908;2024-03-08T02:17:00;35.33;;;15.70;;
61096;SDS011;46977;50.936;6.908;2024-03-08T02:20:02;35.47;;;15.18;;
61096;SDS011;46977;50.936;6.908;2024-03-08T02:23:08;36.28;;;15.27;;
61096;SDS011;46977;50.936;6.908;2024-03-08T02:26:10;30.17;;;15.18;;
61096;SDS011;46977;50.936;6.908;2024-03-08T02:29:13;33.95;;;14.60;;
61096;SDS011;46977;50.936;6.908;2024-03-08T02:32:16;29.88;;;13.27;;
61096;SDS011;46977;50.936;6.908;2024-03-08T02:35:20;34.17;;;15.60;;
61096;SDS011;46977;50.936;6.908;2024-03-08T02:38:25;30.75;;;15.30;;
61096;SDS011;46977;50.936;6.908;2024-03-08T02:41:27;37.28;;;17.25;;
61096;SDS011;46977;50.936;6.908;2024-03-08T02:44:30;30.40;;;15.75;;
61096;SDS011;46977;50.936;6.908;2024-03-08T02:47:32;31.48;;;14.77;;
61096;SDS011;46977;50.936;6.908;2024-03-08T02:50:35;39.30;;;17.17;;
61096;SDS011;46977;50.936;6.908;2024-03-08T02:53:39;33.10;;;16.20;;
61096;SDS011;46977;50.936;6.908;2024-03-08T02:56:42;29.88;;;16.65;;
61096;SDS011;46977;50.936;6.908;2024-03-08T02:59:44;31.25;;;16.65;;
61096;SDS011;46977;50.936;6.908;2024-03-08T03:02:47;31.95;;;15.48;;
61096;SDS011;46977;50.936;6.908;2024-03-08T03:05:50;31.58;;;14.95;;
61096;SDS011;46977;50.936;6.908;2024-03-08T03:08:54;29.02;;;14.00;;
61096;SDS011;46977;50.936;6.908;2024-03-08T03:11:56;26.55;;;13.95;;
61096;SDS011;46977;50.936;6.908;2024-03-08T03:14:58;29.77;;;14.32;;
61096;SDS011;46977;50.936;6.908;2024-03-08T03:18:01;33.13;;;15.45;;
61096;SDS011;46977;50.936;6.908;2024-03-08T03:21:04;36.30;;;15.70;;
61096;SDS011;46977;50.936;6.908;2024-03-08T03:24:11;31.52;;;14.40;;
61096;SDS011;46977;50.936;6.908;2024-03-08T03:27:14;32.00;;;15.43;;
61096;SDS011;46977;50.936;6.908;2024-03-08T03:30:17;30.90;;;15.00;;
61096;SDS011;46977;50.936;6.908;2024-03-08T03:33:23;35.40;;;14.73;;
61096;SDS011;46977;50.936;6.908;2024-03-08T03:36:25;33.75;;;15.75;;
61096;SDS011;46977;50.936;6.908;2024-03-08T03:39:31;31.40;;;15.35;;
61096;SDS011;46977;50.936;6.908;2024-03-08T03:42:33;35.92;;;16.88;;
61096;SDS011;46977;50.936;6.908;2024-03-08T03:45:36;35.50;;;15.60;;
61096;SDS011;46977;50.936;6.908;2024-03-08T03:48:39;38.25;;;16.35;;
61096;SDS011;46977;50.936;6.908;2024-03-08T03:51:44;31.00;;;14.73;;
61096;SDS011;46977;50.936;6.908;2024-03-08T03:54:48;33.42;;;15.00;;
61096;SDS011;46977;50.936;6.908;2024-03-08T03:57:51;39.90;;;18.10;;
61096;SDS011;46977;50.936;6.908;2024-03-08T04:00:54;31.45;;;17.15;;
61096;SDS011;46977;50.936;6.908;2024-03-08T04:03:56;33.50;;;15.60;;
61096;SDS011;46977;50.936;6.908;2024-03-08T04:06:58;33.75;;;15.80;;
61096;SDS011;46977;50.936;6.908;2024-03-08T04:10:02;36.10;;;15.82;;
61096;SDS011;46977;50.936;6.908;2024-03-08T04:13:06;29.45;;;13.70;;
61096;SDS011;46977;50.936;6.908;2024-03-08T04:16:11;36.63;;;15.73;;
61096;SDS011;46977;50.936;6.908;2024-03-08T04:19:14;27.23;;;13.77;;
61096;SDS011;46977;50.936;6.908;2024-03-08T04:22:16;35.13;;;14.45;;
61096;SDS011;46977;50.936;6.908;2024-03-08T04:25:20;39.25;;;16.95;;
61096;SDS011;46977;50.936;6.908;2024-03-08T04:28:23;34.35;;;15.07;;
61096;SDS011;46977;50.936;6.908;2024-03-08T04:31:26;32.50;;;14.18;;
61096;SDS011;46977;50.936;6.908;2024-03-08T04:34:29;34.38;;;15.25;;
61096;SDS011;46977;50.936;6.908;2024-03-08T04:37:31;30.58;;;14.20;;
61096;SDS011;46977;50.936;6.908;2024-03-08T04:40:36;35.03;;;16.00;;
61096;SDS011;46977;50.936;6.908;2024-03-08T04:43:39;34.13;;;15.30;;
61096;SDS011;46977;50.936;6.908;2024-03-08T04:46:41;37.78;;;16.58;;
61096;SDS011;46977;50.936;6.908;2024-03-08T04:49:43;35.53;;;15.57;;
61096;SDS011;46977;50.936;6.908;2024-03-08T04:52:46;31.23;;;14.80;;
61096;SDS011;46977;50.936;6.908;2024-03-08T04:55:51;33.90;;;16.23;;
61096;SDS011;46977;50.936;6.908;2024-03-08T04:58:53;31.92;;;15.63;;
61096;SDS011;46977;50.936;6.908;2024-03-08T05:01:55;31.52;;;16.02;;
61096;SDS011;46977;50.936;6.908;2024-03-08T05:04:58;32.47;;;15.80;;
61096;SDS011;46977;50.936;6.908;2024-03-08T05:08:00;37.00;;;15.90;;
61096;SDS011;46977;50.936;6.908;2024-03-08T05:11:04;33.67;;;15.80;;
61096;SDS011;46977;50.936;6.908;2024-03-08T05:14:09;35.25;;;14.88;;
61096;SDS011;46977;50.936;6.908;2024-03-08T05:17:12;36.47;;;16.13;;
61096;SDS011;46977;50.936;6.908;2024-03-08T05:20:14;28.02;;;13.63;;
61096;SDS011;46977;50.936;6.908;2024-03-08T05:23:16;36.53;;;15.85;;
61096;SDS011;46977;50.936;6.908;2024-03-08T05:26:23;32.70;;;15.80;;
61096;SDS011;46977;50.936;6.908;2024-03-08T05:29:25;23.88;;;11.77;;
61096;SDS011;46977;50.936;6.908;2024-03-08T05:32:34;31.75;;;15.77;;
61096;SDS011;46977;50.936;6.908;2024-03-08T05:35:37;32.28;;;15.50;;
61096;SDS011;46977;50.936;6.908;2024-03-08T05:38:40;32.15;;;16.63;;
61096;SDS011;46977;50.936;6.908;2024-03-08T05:41:48;37.53;;;16.63;;
61096;SDS011;46977;50.936;6.908;2024-03-08T05:44:53;36.22;;;15.75;;
61096;SDS011;46977;50.936;6.908;2024-03-08T05:47:59;36.65;;;17.02;;
61096;SDS011;46977;50.936;6.908;2024-03-08T05:51:06;34.70;;;15.50;;
61096;SDS011;46977;50.936;6.908;2024-03-08T05:54:10;32.33;;;15.60;;
61096;SDS011;46977;50.936;6.908;2024-03-08T05:57:18;37.72;;;17.05;;
61096;SDS011;46977;50.936;6.908;2024-03-08T06:00:21;32.92;;;14.60;;
61096;SDS011;46977;50.936;6.908;2024-03-08T06:03:24;37.33;;;16.45;;
61096;SDS011;46977;50.936;6.908;2024-03-08T06:06:27;40.65;;;17.85;;
61096;SDS011;46977;50.936;6.908;2024-03-08T06:09:33;35.78;;;15.52;;
61096;SDS011;46977;50.936;6.908;2024-03-08T06:12:37;35.65;;;17.02;;
61096;SDS011;46977;50.936;6.908;2024-03-08T06:15:43;34.30;;;15.52;;
61096;SDS011;46977;50.936;6.908;2024-03-08T06:18:47;31.77;;;16.02;;
61096;SDS011;46977;50.936;6.908;2024-03-08T06:21:54;42.72;;;17.13;;
61096;SDS011;46977;50.936;6.908;2024-03-08T06:25:03;40.05;;;16.65;;
61096;SDS011;46977;50.936;6.908;2024-03-08T06:28:08;34.72;;;16.40;;
61096;SDS011;46977;50.936;6.908;2024-03-08T06:31:12;34.03;;;15.48;;
61096;SDS011;46977;50.936;6.908;2024-03-08T06:34:54;35.75;;;17.10;;
61096;SDS011;46977;50.936;6.908;2024-03-08T06:37:57;30.75;;;15.73;;
61096;SDS011;46977;50.936;6.908;2024-03-08T06:41:01;32.45;;;14.38;;
61096;SDS011;46977;50.936;6.908;2024-03-08T06:44:07;29.65;;;14.63;;
61096;SDS011;46977;50.936;6.908;2024-03-08T06:47:13;29.63;;;15.10;;
61096;SDS011;46977;50.936;6.908;2024-03-08T06:50:26;33.17;;;15.57;;
61096;SDS011;46977;50.936;6.908;2024-03-08T06:53:35;30.55;;;16.15;;
61096;SDS011;46977;50.936;6.908;2024-03-08T06:56:42;34.53;;;16.08;;
61096;SDS011;46977;50.936;6.908;2024-03-08T07:00:10;32.75;;;17.45;;
61096;SDS011;46977;50.936;6.908;2024-03-08T07:17:48;28.88;;;13.68;;
61096;SDS011;46977;50.936;6.908;2024-03-08T07:25:35;28.15;;;14.88;;
61096;SDS011;46977;50.936;6.908;2024-03-08T07:28:40;32.22;;;16.60;;
61096;SDS011;46977;50.936;6.908;2024-03-08T07:31:59;30.05;;;14.98;;
61096;SDS011;46977;50.936;6.908;2024-03-08T07:35:22;26.63;;;14.57;;
61096;SDS011;46977;50.936;6.908;2024-03-08T07:38:25;28.73;;;16.23;;
61096;SDS011;46977;50.936;6.908;2024-03-08T07:41:27;23.00;;;14.30;;
61096;SDS011;46977;50.936;6.908;2024-03-08T07:44:32;24.13;;;13.80;;
61096;SDS011;46977;50.936;6.908;2024-03-08T07:47:36;29.38;;;16.27;;
61096;SDS011;46977;50.936;6.908;2024-03-08T07:50:45;27.85;;;15.55;;
61096;SDS011;46977;50.936;6.908;2024-03-08T07:53:56;26.58;;;14.23;;
61096;SDS011;46977;50.936;6.908;2024-03-08T07:57:06;24.92;;;15.02;;
61096;SDS011;46977;50.936;6.908;2024-03-08T08:00:15;27.65;;;15.65;;
61096;SDS011;46977;50.936;6.908;2024-03-08T08:03:26;25.25;;;14.75;;
61096;SDS011;46977;50.936;6.908;2024-03-08T08:06:30;25.67;;;14.70;;
61096;SDS011;46977;50.936;6.908;2024-03-08T08:09:37;25.02;;;14.82;;
61096;SDS011;46977;50.936;6.908;2024-03-08T08:19:33;24.13;;;13.75;;
61096;SDS011;46977;50.936;6.908;2024-03-08T08:25:55;23.35;;;13.48;;
61096;SDS011;46977;50.936;6.908;2024-03-08T08:45:10;21.75;;;13.32;;
61096;SDS011;46977;50.936;6.908;2024-03-08T08:50:04;21.23;;;13.60;;
61096;SDS011;46977;50.936;6.908;2024-03-08T08:54:27;24.50;;;14.13;;
61096;SDS011;46977;50.936;6.908;2024-03-08T08:57:29;23.58;;;14.45;;
61096;SDS011;46977;50.936;6.908;2024-03-08T09:00:36;21.73;;;12.32;;
61096;SDS011;46977;50.936;6.908;2024-03-08T09:03:38;28.70;;;13.55;;
61096;SDS011;46977;50.936;6.908;2024-03-08T09:06:42;23.23;;;13.88;;
61096;SDS011;46977;50.936;6.908;2024-03-08T09:09:46;21.83;;;11.48;;
61096;SDS011;46977;50.936;6.908;2024-03-08T09:12:48;21.00;;;11.88;;
61096;SDS011;46977;50.936;6.908;2024-03-08T09:15:52;24.27;;;14.48;;
61096;SDS011;46977;50.936;6.908;2024-03-08T09:18:54;19.85;;;10.95;;
61096;SDS011;46977;50.936;6.908;2024-03-08T09:21:57;21.85;;;11.57;;
61096;SDS011;46977;50.936;6.908;2024-03-08T09:25:00;21.92;;;12.07;;
61096;SDS011;46977;50.936;6.908;2024-03-08T09:28:03;21.35;;;12.27;;
61096;SDS011;46977;50.936;6.908;2024-03-08T09:31:09;21.75;;;13.70;;
61096;SDS011;46977;50.936;6.908;2024-03-08T09:34:13;20.17;;;11.75;;
61096;SDS011;46977;50.936;6.908;2024-03-08T09:37:23;21.25;;;12.70;;
61096;SDS011;46977;50.936;6.908;2024-03-08T09:40:26;21.85;;;13.10;;
61096;SDS011;46977;50.936;6.908;2024-03-08T09:43:29;22.73;;;13.80;;
61096;SDS011;46977;50.936;6.908;2024-03-08T09:46:34;22.58;;;13.15;;
61096;SDS011;46977;50.936;6.908;2024-03-08T09:49:36;18.00;;;10.52;;
61096;SDS011;46977;50.936;6.908;2024-03-08T09:52:40;19.48;;;11.10;;
61096;SDS011;46977;50.936;6.908;2024-03-08T09:55:43;20.05;;;12.65;;
61096;SDS011;46977;50.936;6.908;2024-03-08T09:58:47;19.40;;;12.50;;
61096;SDS011;46977;50.936;6.908;2024-03-08T10:02:12;21.23;;;11.90;;
61096;SDS011;46977;50.936;6.908;2024-03-08T10:05:17;18.63;;;10.63;;
61096;SDS011;46977;50.936;6.908;2024-03-08T10:08:20;17.88;;;10.38;;
61096;SDS011;46977;50.936;6.908;2024-03-08T10:11:22;17.60;;;10.95;;
61096;SDS011;46977;50.936;6.908;2024-03-08T10:14:25;19.02;;;11.25;;
61096;SDS011;46977;50.936;6.908;2024-03-08T10:17:31;20.15;;;11.63;;
61096;SDS011;46977;50.936;6.908;2024-03-08T10:20:34;18.38;;;10.05;;
61096;SDS011;46977;50.936;6.908;2024-03-08T10:23:37;15.48;;;9.40;;
61096;SDS011;46977;50.936;6.908;2024-03-08T10:26:40;13.80;;;6.85;;
61096;SDS011;46977;50.936;6.908;2024-03-08T10:29:46;14.73;;;8.82;;
61096;SDS011;46977;50.936;6.908;2024-03-08T10:32:51;17.80;;;9.80;;
61096;SDS011;46977;50.936;6.908;2024-03-08T10:35:53;14.07;;;8.82;;
61096;SDS011;46977;50.936;6.908;2024-03-08T10:38:57;14.00;;;7.78;;
61096;SDS011;46977;50.936;6.908;2024-03-08T10:42:02;13.30;;;8.20;;
61096;SDS011;46977;50.936;6.908;2024-03-08T10:45:10;13.82;;;7.05;;
61096;SDS011;46977;50.936;6.908;2024-03-08T10:48:26;12.77;;;6.88;;
61096;SDS011;46977;50.936;6.908;2024-03-08T10:51:39;14.80;;;7.88;;
61096;SDS011;46977;50.936;6.908;2024-03-08T10:54:43;11.52;;;6.88;;
61096;SDS011;46977;50.936;6.908;2024-03-08T10:57:47;10.52;;;6.00;;
61096;SDS011;46977;50.936;6.908;2024-03-08T11:00:49;13.98;;;6.70;;
61096;SDS011;46977;50.936;6.908;2024-03-08T11:03:53;16.52;;;7.97;;
61096;SDS011;46977;50.936;6.908;2024-03-08T11:07:00;12.57;;;6.57;;
61096;SDS011;46977;50.936;6.908;2024-03-08T11:10:06;11.80;;;7.47;;
61096;SDS011;46977;50.936;6.908;2024-03-08T11:13:32;14.30;;;7.03;;
61096;SDS011;46977;50.936;6.908;2024-03-08T11:16:38;15.70;;;8.38;;
61096;SDS011;46977;50.936;6.908;2024-03-08T11:19:47;14.60;;;7.05;;
61096;SDS011;46977;50.936;6.908;2024-03-08T11:22:55;12.75;;;6.47;;
61096;SDS011;46977;50.936;6.908;2024-03-08T11:26:02;12.40;;;7.82;;
61096;SDS011;46977;50.936;6.908;2024-03-08T11:32:44;13.68;;;8.07;;
61096;SDS011;46977;50.936;6.908;2024-03-08T11:35:48;13.60;;;7.75;;
61096;SDS011;46977;50.936;6.908;2024-03-08T11:38:50;16.35;;;8.27;;
61096;SDS011;46977;50.936;6.908;2024-03-08T11:41:54;13.90;;;8.13;;
61096;SDS011;46977;50.936;6.908;2024-03-08T11:44:57;19.52;;;10.02;;
61096;SDS011;46977;50.936;6.908;2024-03-08T11:48:00;13.93;;;8.30;;
61096;SDS011;46977;50.936;6.908;2024-03-08T11:51:04;14.13;;;7.90;;
61096;SDS011;46977;50.936;6.908;2024-03-08T11:54:10;15.52;;;9.02;;
61096;SDS011;46977;50.936;6.908;2024-03-08T11:57:14;16.42;;;8.48;;
61096;SDS011;46977;50.936;6.908;2024-03-08T12:00:16;13.38;;;7.05;;
61096;SDS011;46977;50.936;6.908;2024-03-08T12:03:26;16.65;;;8.18;;
61096;SDS011;46977;50.936;6.908;2024-03-08T12:06:37;11.93;;;6.95;;
61096;SDS011;46977;50.936;6.908;2024-03-08T12:09:42;12.93;;;8.20;;
61096;SDS011;46977;50.936;6.908;2024-03-08T12:12:49;14.82;;;8.25;;
61096;SDS011;46977;50.936;6.908;2024-03-08T12:15:53;15.82;;;8.30;;
61096;SDS011;46977;50.936;6.908;2024-03-08T12:18:56;15.48;;;8.52;;
61096;SDS011;46977;50.936;6.908;2024-03-08T12:22:10;13.88;;;7.93;;
61096;SDS011;46977;50.936;6.908;2024-03-08T12:25:13;16.00;;;8.25;;
61096;SDS011;46977;50.936;6.908;2024-03-08T12:28:16;16.23;;;8.75;;
61096;SDS011;46977;50.936;6.908;2024-03-08T12:31:20;18.67;;;9.27;;
61096;SDS011;46977;50.936;6.908;2024-03-08T12:34:23;12.90;;;7.53;;
61096;SDS011;46977;50.936;6.908;2024-03-08T12:37:27;17.77;;;9.40;;
61096;SDS011;46977;50.936;6.908;2024-03-08T12:40:30;13.10;;;8.13;;
61096;SDS011;46977;50.936;6.908;2024-03-08T12:43:34;13.75;;;7.55;;
61096;SDS011;46977;50.936;6.908;2024-03-08T12:46:37;14.23;;;7.93;;
61096;SDS011;46977;50.936;6.908;2024-03-08T12:49:42;14.98;;;7.28;;
61096;SDS011;46977;50.936;6.908;2024-03-08T12:52:46;15.38;;;8.00;;
61096;SDS011;46977;50.936;6.908;2024-03-08T12:55:52;14.35;;;7.35;;
61096;SDS011;46977;50.936;6.908;2024-03-08T12:58:59;14.35;;;8.18;;
61096;SDS011;46977;50.936;6.908;2024-03-08T13:02:02;13.98;;;7.03;;
61096;SDS011;46977;50.936;6.908;2024-03-08T13:05:13;14.25;;;7.47;;
61096;SDS011;46977;50.936;6.908;2024-03-08T13:08:23;14.57;;;6.95;;
61096;SDS011;46977;50.936;6.908;2024-03-08T13:11:31;12.35;;;7.75;;
61096;SDS011;46977;50.936;6.908;2024-03-08T13:14:40;13.45;;;7.18;;
61096;SDS011;46977;50.936;6.908;2024-03-08T13:17:42;13.48;;;6.72;;
61096;SDS011;46977;50.936;6.908;2024-03-08T13:20:46;14.35;;;7.00;;
61096;SDS011;46977;50.936;6.908;2024-03-08T13:23:55;10.52;;;5.97;;
61096;SDS011;46977;50.936;6.908;2024-03-08T13:26:57;14.40;;;7.45;;
61096;SDS011;46977;50.936;6.908;2024-03-08T13:30:02;15.98;;;7.32;;
61096;SDS011;46977;50.936;6.908;2024-03-08T13:33:05;11.63;;;7.20;;
61096;SDS011;46977;50.936;6.908;2024-03-08T13:36:10;15.60;;;7.22;;
61096;SDS011;46977;50.936;6.908;2024-03-08T13:39:22;11.38;;;6.90;;
61096;SDS011;46977;50.936;6.908;2024-03-08T13:42:27;12.85;;;6.85;;
61096;SDS011;46977;50.936;6.908;2024-03-08T13:45:29;12.07;;;7.07;;
61096;SDS011;46977;50.936;6.908;2024-03-08T13:48:32;13.73;;;6.72;;
61096;SDS011;46977;50.936;6.908;2024-03-08T13:51:35;9.90;;;6.30;;
61096;SDS011;46977;50.936;6.908;2024-03-08T13:54:38;13.07;;;7.03;;
61096;SDS011;46977;50.936;6.908;2024-03-08T13:57:41;13.07;;;7.40;;
61096;SDS011;46977;50.936;6.908;2024-03-08T14:00:44;11.35;;;7.45;;
61096;SDS011;46977;50.936;6.908;2024-03-08T14:03:48;14.40;;;8.05;;
61096;SDS011;46977;50.936;6.908;2024-03-08T14:06:50;17.42;;;6.93;;
61096;SDS011;46977;50.936;6.908;2024-03-08T14:10:03;13.40;;;5.53;;
61096;SDS011;46977;50.936;6.908;2024-03-08T14:13:08;11.30;;;5.70;;
61096;SDS011;46977;50.936;6.908;2024-03-08T14:16:11;12.43;;;5.88;;
61096;SDS011;46977;50.936;6.908;2024-03-08T14:19:13;11.15;;;6.00;;
61096;SDS011;46977;50.936;6.908;2024-03-08T14:22:17;10.85;;;6.53;;
61096;SDS011;46977;50.936;6.908;2024-03-08T14:25:21;11.13;;;6.63;;
61096;SDS011;46977;50.936;6.908;2024-03-08T14:28:25;12.80;;;6.25;;
61096;SDS011;46977;50.936;6.908;2024-03-08T14:31:30;11.90;;;6.55;;
61096;SDS011;46977;50.936;6.908;2024-03-08T14:34:34;9.82;;;4.95;;
61096;SDS011;46977;50.936;6.908;2024-03-08T14:37:37;13.68;;;5.93;;
61096;SDS011;46977;50.936;6.908;2024-03-08T14:40:41;8.07;;;5.45;;
61096;SDS011;46977;50.936;6.908;2024-03-08T14:43:47;14.18;;;6.78;;
61096;SDS011;46977;50.936;6.908;2024-03-08T14:46:50;13.60;;;6.63;;
61096;SDS011;46977;50.936;6.908;2024-03-08T14:49:52;11.07;;;6.30;;
61096;SDS011;46977;50.936;6.908;2024-03-08T14:52:57;13.77;;;7.38;;
61096;SDS011;46977;50.936;6.908;2024-03-08T15:05:25;13.32;;;6.72;;
61096;SDS011;46977;50.936;6.908;2024-03-08T15:08:34;11.80;;;7.03;;
61096;SDS011;46977;50.936;6.908;2024-03-08T15:11:38;14.38;;;6.97;;
61096;SDS011;46977;50.936;6.908;2024-03-08T15:14:41;9.98;;;5.55;;
61096;SDS011;46977;50.936;6.908;2024-03-08T15:17:45;13.65;;;7.03;;
61096;SDS011;46977;50.936;6.908;2024-03-08T15:20:49;12.85;;;6.85;;
61096;SDS011;46977;50.936;6.908;2024-03-08T15:23:52;15.70;;;7.60;;
61096;SDS011;46977;50.936;6.908;2024-03-08T15:26:57;9.48;;;4.95;;
61096;SDS011;46977;50.936;6.908;2024-03-08T15:30:01;11.48;;;5.43;;
61096;SDS011;46977;50.936;6.908;2024-03-08T15:33:07;12.60;;;7.13;;
61096;SDS011;46977;50.936;6.908;2024-03-08T15:36:12;13.75;;;6.65;;
61096;SDS011;46977;50.936;6.908;2024-03-08T15:39:19;13.63;;;7.38;;
61096;SDS011;46977;50.936;6.908;2024-03-08T15:42:30;11.38;;;5.65;;
61096;SDS011;46977;50.936;6.908;2024-03-08T15:45:32;12.02;;;6.40;;
61096;SDS011;46977;50.936;6.908;2024-03-08T15:48:35;10.30;;;4.93;;
61096;SDS011;46977;50.936;6.908;2024-03-08T15:51:39;9.85;;;4.43;;
61096;SDS011;46977;50.936;6.908;2024-03-08T15:54:43;10.63;;;6.07;;
61096;SDS011;46977;50.936;6.908;2024-03-08T15:57:47;10.88;;;6.30;;
61096;SDS011;46977;50.936;6.908;2024-03-08T16:00:52;12.40;;;6.88;;
61096;SDS011;46977;50.936;6.908;2024-03-08T16:03:55;12.27;;;6.97;;
61096;SDS011;46977;50.936;6.908;2024-03-08T16:07:00;12.02;;;6.20;;
61096;SDS011;46977;50.936;6.908;2024-03-08T16:10:08;8.73;;;5.65;;
61096;SDS011;46977;50.936;6.908;2024-03-08T16:13:13;11.73;;;6.50;;
61096;SDS011;46977;50.936;6.908;2024-03-08T16:16:18;10.25;;;6.28;;
61096;SDS011;46977;50.936;6.908;2024-03-08T16:19:23;16.67;;;7.18;;
61096;SDS011;46977;50.936;6.908;2024-03-08T16:22:27;13.68;;;6.22;;
61096;SDS011;46977;50.936;6.908;2024-03-08T16:25:36;14.65;;;7.05;;
61096;SDS011;46977;50.936;6.908;2024-03-08T16:28:47;15.15;;;7.63;;
61096;SDS011;46977;50.936;6.908;2024-03-08T16:31:50;12.40;;;6.72;;
61096;SDS011;46977;50.936;6.908;2024-03-08T16:34:52;16.70;;;8.45;;
61096;SDS011;46977;50.936;6.908;2024-03-08T16:37:54;11.30;;;6.28;;
61096;SDS011;46977;50.936;6.908;2024-03-08T16:40:59;11.35;;;6.57;;
61096;SDS011;46977;50.936;6.908;2024-03-08T16:44:04;12.40;;;6.90;;
61096;SDS011;46977;50.936;6.908;2024-03-08T16:47:07;14.88;;;7.47;;
61096;SDS011;46977;50.936;6.908;2024-03-08T16:50:09;14.65;;;8.27;;
61096;SDS011;46977;50.936;6.908;2024-03-08T16:53:15;16.05;;;8.77;;
61096;SDS011;46977;50.936;6.908;2024-03-08T16:56:19;17.60;;;7.80;;
61096;SDS011;46977;50.936;6.908;2024-03-08T16:59:22;13.05;;;7.07;;
61096;SDS011;46977;50.936;6.908;2024-03-08T17:02:25;14.35;;;7.95;;
61096;SDS011;46977;50.936;6.908;2024-03-08T17:05:28;16.70;;;8.50;;
61096;SDS011;46977;50.936;6.908;2024-03-08T17:08:36;13.85;;;7.95;;
61096;SDS011;46977;50.936;6.908;2024-03-08T17:11:39;16.15;;;7.75;;
61096;SDS011;46977;50.936;6.908;2024-03-08T17:14:42;15.90;;;7.82;;
61096;SDS011;46977;50.936;6.908;2024-03-08T17:17:45;17.83;;;8.88;;
61096;SDS011;46977;50.936;6.908;2024-03-08T17:20:48;17.38;;;8.48;;
61096;SDS011;46977;50.936;6.908;2024-03-08T17:23:51;17.40;;;7.72;;
61096;SDS011;46977;50.936;6.908;2024-03-08T17:26:53;20.50;;;8.80;;
61096;SDS011;46977;50.936;6.908;2024-03-08T17:30:03;15.57;;;8.00;;
61096;SDS011;46977;50.936;6.908;2024-03-08T17:33:19;20.98;;;8.98;;
61096;SDS011;46977;50.936;6.908;2024-03-08T17:36:23;16.50;;;8.70;;
61096;SDS011;46977;50.936;6.908;2024-03-08T17:39:26;15.68;;;8.38;;
61096;SDS011;46977;50.936;6.908;2024-03-08T17:42:31;16.02;;;8.43;;
61096;SDS011;46977;50.936;6.908;2024-03-08T17:45:35;13.77;;;7.13;;
61096;SDS011;46977;50.936;6.908;2024-03-08T17:48:40;17.13;;;7.90;;
61096;SDS011;46977;50.936;6.908;2024-03-08T17:51:43;17.40;;;9.32;;
61096;SDS011;46977;50.936;6.908;2024-03-08T17:54:48;16.38;;;9.93;;
61096;SDS011;46977;50.936;6.908;2024-03-08T17:57:52;17.67;;;9.07;;
61096;SDS011;46977;50.936;6.908;2024-03-08T18:00:58;21.90;;;8.45;;
61096;SDS011;46977;50.936;6.908;2024-03-08T18:04:00;14.45;;;6.70;;
61096;SDS011;46977;50.936;6.908;2024-03-08T18:07:02;17.02;;;8.20;;
61096;SDS011;46977;50.936;6.908;2024-03-08T18:10:07;17.85;;;8.60;;
61096;SDS011;46977;50.936;6.908;2024-03-08T18:13:12;19.92;;;8.60;;
61096;SDS011;46977;50.936;6.908;2024-03-08T18:16:17;20.85;;;8.65;;
61096;SDS011;46977;50.936;6.908;2024-03-08T18:19:22;16.90;;;8.43;;
61096;SDS011;46977;50.936;6.908;2024-03-08T18:22:25;19.25;;;9.82;;
61096;SDS011;46977;50.936;6.908;2024-03-08T18:25:27;20.85;;;10.23;;
61096;SDS011;46977;50.936;6.908;2024-03-08T18:28:30;21.08;;;8.95;;
61096;SDS011;46977;50.936;6.908;2024-03-08T18:31:34;20.17;;;8.65;;
61096;SDS011;46977;50.936;6.908;2024-03-08T18:34:37;22.63;;;9.88;;
61096;SDS011;46977;50.936;6.908;2024-03-08T18:37:45;21.42;;;10.25;;
61096;SDS011;46977;50.936;6.908;2024-03-08T18:40:52;19.05;;;8.60;;
61096;SDS011;46977;50.936;6.908;2024-03-08T18:43:54;22.45;;;10.77;;
61096;SDS011;46977;50.936;6.908;2024-03-08T18:47:01;20.52;;;9.95;;
61096;SDS011;46977;50.936;6.908;2024-03-08T18:50:04;20.17;;;10.55;;
61096;SDS011;46977;50.936;6.908;2024-03-08T18:53:10;23.05;;;11.52;;
61096;SDS011;46977;50.936;6.908;2024-03-08T18:56:13;23.95;;;10.95;;
61096;SDS011;46977;50.936;6.908;2024-03-08T18:59:16;18.23;;;9.50;;
61096;SDS011;46977;50.936;6.908;2024-03-08T19:02:20;25.20;;;10.85;;
61096;SDS011;46977;50.936;6.908;2024-03-08T19:05:25;21.25;;;10.07;;
61096;SDS011;46977;50.936;6.908;2024-03-08T19:08:28;22.58;;;11.82;;
61096;SDS011;46977;50.936;6.908;2024-03-08T19:11:32;27.30;;;12.32;;